Time;durP1;ratioP1;P1;durP2;ratioP2;P2;SDS_P1;SDS_P2;PMS_P1;PMS_P2;Temp;Humidity;BMP_temperature;BMP_pressure;BME280_temperature;BME280_humidity;BME280_pressure;Samples;Min_cycle;Max_cycle;Signal;HPM_P1;HPM_P2
2021/01/04 00:02:27;;;;;;;27.83;13.67;;;2.30;99.90;;;;;;5068816;28;20118;-71
2021/01/04 00:05:23;;;;;;;34.30;15.33;;;2.30;99.90;;;;;;5067220;28;20048;-70
2021/01/04 00:08:39;;;;;;;28.27;13.90;;;2.30;99.90;;;;;;5073560;28;20048;-70
2021/01/04 00:11:31;;;;;;;31.40;13.97;;;2.30;99.90;;;;;;5071531;28;20048;-70
2021/01/04 00:14:24;;;;;;;28.03;13.93;;;2.40;99.90;;;;;;5065605;28;20051;-70
2021/01/04 00:17:00;;;;;;;32.83;14.93;;;2.40;99.90;;;;;;5071510;28;20050;-75
2021/01/04 00:19:34;;;;;;;31.37;14.27;;;2.40;99.90;;;;;;5062167;28;20394;-75
2021/01/04 00:22:09;;;;;;;29.33;14.03;;;2.30;99.90;;;;;;5059695;28;20053;-73
2021/01/04 00:24:44;;;;;;;28.70;13.43;;;2.40;99.90;;;;;;5083129;28;20044;-73
2021/01/04 00:27:18;;;;;;;34.83;14.53;;;2.40;99.90;;;;;;5067780;28;20504;-75
2021/01/04 00:29:54;;;;;;;27.80;13.07;;;2.50;99.90;;;;;;5086030;28;20062;-73
2021/01/04 00:32:33;;;;;;;29.57;13.97;;;2.40;99.90;;;;;;5069633;28;20496;-73
2021/01/04 00:35:08;;;;;;;30.53;14.13;;;2.40;99.90;;;;;;5079391;28;20770;-71
2021/01/04 00:38:18;;;;;;;28.73;12.53;;;2.30;99.90;;;;;;5074603;28;20044;-71
2021/01/04 00:40:58;;;;;;;32.27;13.00;;;2.30;99.90;;;;;;5080015;28;20056;-72
2021/01/04 00:43:30;;;;;;;30.97;13.97;;;2.40;99.90;;;;;;5086981;28;20047;-72
2021/01/04 00:45:58;;;;;;;29.57;14.30;;;2.30;99.90;;;;;;5071959;28;20131;-72
2021/01/04 00:48:32;;;;;;;28.90;13.03;;;2.30;99.90;;;;;;5077828;28;20052;-71
2021/01/04 00:51:16;;;;;;;29.57;13.23;;;2.30;99.90;;;;;;5080222;28;20048;-72
2021/01/04 00:53:46;;;;;;;37.40;14.33;;;2.40;99.90;;;;;;5073662;28;20048;-71
2021/01/04 00:56:36;;;;;;;30.37;13.60;;;2.40;99.90;;;;;;5059676;28;20048;-71
2021/01/04 00:59:23;;;;;;;35.87;14.17;;;2.40;99.90;;;;;;5071238;28;20045;-71
2021/01/04 01:02:34;;;;;;;32.33;15.13;;;2.40;99.90;;;;;;5070119;28;20048;-72
2021/01/04 01:05:10;;;;;;;30.13;13.73;;;2.40;99.90;;;;;;5034757;28;20048;-72
2021/01/04 01:08:12;;;;;;;28.55;13.95;;;2.40;99.90;;;;;;5072880;28;20053;-71
2021/01/04 01:10:43;;;;;;;24.73;12.60;;;2.40;99.90;;;;;;5048853;28;20056;-71
2021/01/04 01:13:28;;;;;;;32.20;14.77;;;2.40;99.90;;;;;;5063706;28;20052;-72
2021/01/04 01:16:13;;;;;;;30.93;13.17;;;2.40;99.90;;;;;;5068470;28;20048;-72
2021/01/04 01:18:43;;;;;;;28.53;12.77;;;2.40;99.90;;;;;;5067489;28;20044;-73
2021/01/04 01:21:11;;;;;;;29.57;13.27;;;2.40;99.90;;;;;;5063941;28;20096;-70
2021/01/04 01:23:41;;;;;;;32.13;13.90;;;2.50;99.90;;;;;;5081399;28;20048;-71
2021/01/04 01:26:27;;;;;;;25.80;12.13;;;2.50;99.90;;;;;;5083771;28;20054;-70
2021/01/04 01:29:34;;;;;;;33.83;13.73;;;2.50;99.90;;;;;;5089029;28;20051;-70
2021/01/04 01:32:35;;;;;;;27.33;12.07;;;2.40;99.90;;;;;;5056511;28;20049;-73
2021/01/04 01:35:19;;;;;;;31.10;12.80;;;2.40;99.90;;;;;;5070236;28;20450;-70
2021/01/04 01:38:20;;;;;;;30.13;13.57;;;2.40;99.90;;;;;;5056013;28;20417;-71
2021/01/04 01:41:13;;;;;;;32.13;12.27;;;2.50;99.90;;;;;;5095368;28;20067;-71
2021/01/04 01:43:58;;;;;;;31.00;13.40;;;2.60;99.90;;;;;;5057972;28;20083;-71
2021/01/04 01:46:33;;;;;;;30.03;13.03;;;2.50;99.90;;;;;;5067264;28;20043;-72
2021/01/04 01:49:14;;;;;;;36.30;14.30;;;2.40;99.90;;;;;;5076439;28;20052;-71
2021/01/04 01:51:59;;;;;;;34.33;14.17;;;2.40;99.90;;;;;;5075225;28;20052;-71
2021/01/04 01:54:42;;;;;;;44.00;14.70;;;2.40;99.90;;;;;;5075867;28;20056;-71
2021/01/04 01:57:29;;;;;;;32.20;14.37;;;2.30;99.90;;;;;;5069488;28;20048;-73
2021/01/04 02:00:18;;;;;;;32.77;13.60;;;2.40;99.90;;;;;;5070797;28;20053;-71
2021/01/04 02:02:59;;;;;;;33.47;14.13;;;2.40;99.90;;;;;;5066562;28;20287;-71
2021/01/04 02:05:37;;;;;;;38.30;13.23;;;2.40;99.90;;;;;;5070333;28;20540;-71
2021/01/04 02:08:09;;;;;;;33.47;13.93;;;2.40;99.90;;;;;;5063306;28;20751;-71
2021/01/04 02:10:44;;;;;;;36.60;15.03;;;2.40;99.90;;;;;;5065335;28;20171;-73
2021/01/04 02:13:18;;;;;;;31.87;13.63;;;2.40;99.90;;;;;;5073513;28;20055;-72
2021/01/04 02:15:51;;;;;;;32.17;13.30;;;2.40;99.90;;;;;;5072106;28;20049;-73
2021/01/04 02:18:50;;;;;;;31.07;13.63;;;2.40;99.90;;;;;;5063226;28;20058;-72
2021/01/04 02:21:50;;;;;;;35.93;14.30;;;2.40;99.90;;;;;;5070167;28;20044;-71
2021/01/04 02:24:22;;;;;;;31.63;13.77;;;2.40;99.90;;;;;;5068747;28;20053;-71
2021/01/04 02:26:55;;;;;;;37.23;13.40;;;2.40;99.90;;;;;;5075183;28;20062;-71
2021/01/04 02:29:22;;;;;;;36.47;14.97;;;2.40;99.90;;;;;;5080127;28;20048;-74
2021/01/04 02:31:55;;;;;;;29.47;14.27;;;2.40;99.90;;;;;;5078014;28;20071;-70
2021/01/04 02:34:25;;;;;;;32.63;13.83;;;2.40;99.90;;;;;;5079252;28;20796;-71
2021/01/04 02:36:54;;;;;;;28.37;12.40;;;2.40;99.90;;;;;;5080308;28;20060;-73
2021/01/04 02:39:30;;;;;;;30.70;13.80;;;2.40;99.90;;;;;;5080484;28;20060;-72
2021/01/04 02:42:04;;;;;;;33.10;14.15;;;2.40;99.90;;;;;;5075036;28;20131;-70
2021/01/04 02:44:31;;;;;;;29.33;14.33;;;2.40;99.90;;;;;;5081938;28;20048;-72
2021/01/04 02:47:30;;;;;;;34.53;13.53;;;2.40;99.90;;;;;;5078863;28;20052;-71
2021/01/04 02:50:08;;;;;;;31.97;12.80;;;2.40;99.90;;;;;;5058691;28;20049;-72
2021/01/04 02:52:52;;;;;;;29.47;13.27;;;2.40;99.90;;;;;;5070349;28;20059;-73
2021/01/04 02:55:27;;;;;;;29.20;12.20;;;2.40;99.90;;;;;;5075940;28;20075;-72
2021/01/04 02:57:59;;;;;;;27.47;12.13;;;2.40;99.90;;;;;;5075247;28;20044;-70
2021/01/04 03:00:27;;;;;;;32.73;12.97;;;2.40;99.90;;;;;;5075698;28;20071;-70
2021/01/04 03:02:59;;;;;;;32.30;14.43;;;2.40;99.90;;;;;;5074726;28;20125;-70
2021/01/04 03:05:26;;;;;;;32.13;14.40;;;2.40;99.90;;;;;;5076650;28;20102;-72
2021/01/04 03:07:56;;;;;;;31.27;13.67;;;2.40;99.90;;;;;;5086226;28;20074;-72
2021/01/04 03:10:27;;;;;;;29.37;12.63;;;2.50;99.90;;;;;;5084022;28;20063;-71
2021/01/04 03:13:03;;;;;;;26.77;12.83;;;2.50;99.90;;;;;;5089066;28;20059;-72
2021/01/04 03:15:53;;;;;;;27.23;12.73;;;2.50;99.90;;;;;;5080561;28;20056;-71
2021/01/04 03:18:26;;;;;;;28.53;12.40;;;2.60;99.90;;;;;;5066055;28;20500;-70
2021/01/04 03:20:54;;;;;;;29.57;13.23;;;2.60;99.90;;;;;;5073176;28;20049;-70
2021/01/04 03:23:21;;;;;;;30.73;13.40;;;2.50;99.90;;;;;;5066421;28;20045;-70
2021/01/04 03:25:53;;;;;;;28.63;13.53;;;2.50;99.90;;;;;;5067697;28;20052;-71
2021/01/04 03:28:24;;;;;;;29.50;12.97;;;2.40;99.90;;;;;;5068076;28;20057;-71
2021/01/04 03:30:51;;;;;;;29.20;13.20;;;2.40;99.90;;;;;;5071792;28;20123;-71
2021/01/04 03:33:23;;;;;;;34.47;14.67;;;2.40;99.90;;;;;;5071748;28;20048;-73
2021/01/04 03:35:52;;;;;;;35.43;14.97;;;2.40;99.90;;;;;;5071612;28;20580;-70
2021/01/04 03:38:19;;;;;;;30.50;14.03;;;2.40;99.90;;;;;;5071454;28;20044;-70
2021/01/04 03:40:53;;;;;;;32.40;14.67;;;2.40;99.90;;;;;;5064826;28;20049;-71
2021/01/04 03:43:20;;;;;;;29.30;13.17;;;2.40;99.90;;;;;;5072534;28;20048;-71
2021/01/04 03:45:47;;;;;;;32.37;14.03;;;2.40;99.90;;;;;;5070781;28;20045;-73
2021/01/04 03:48:14;;;;;;;35.83;15.00;;;2.50;99.90;;;;;;5071548;28;20101;-73
2021/01/04 03:50:41;;;;;;;38.90;16.13;;;2.50;99.90;;;;;;5070719;28;20119;-71
2021/01/04 03:53:08;;;;;;;37.93;16.33;;;2.50;99.90;;;;;;5070694;28;20053;-73
2021/01/04 03:55:37;;;;;;;35.67;16.27;;;2.40;99.90;;;;;;5071806;28;20040;-70
2021/01/04 03:58:05;;;;;;;40.17;15.30;;;2.40;99.90;;;;;;5071190;28;20048;-70
2021/01/04 04:00:33;;;;;;;36.53;16.57;;;2.40;99.90;;;;;;5067507;28;20056;-70
2021/01/04 04:02:59;;;;;;;35.87;15.83;;;2.40;99.90;;;;;;5071459;28;20056;-70
2021/01/04 04:05:26;;;;;;;40.73;14.67;;;2.40;99.90;;;;;;5070315;28;20049;-71
2021/01/04 04:07:52;;;;;;;36.73;15.40;;;2.40;99.90;;;;;;5069494;28;20050;-71
2021/01/04 04:10:21;;;;;;;41.87;16.23;;;2.40;99.90;;;;;;5070555;28;20072;-73
2021/01/04 04:12:48;;;;;;;40.57;15.87;;;2.40;99.90;;;;;;5070753;28;20070;-71
2021/01/04 04:15:18;;;;;;;38.43;15.33;;;2.40;99.90;;;;;;5071057;28;20053;-70
2021/01/04 04:17:45;;;;;;;37.30;16.20;;;2.40;99.90;;;;;;5069379;28;20634;-71
2021/01/04 04:20:15;;;;;;;38.23;15.77;;;2.40;99.90;;;;;;5070167;28;20052;-70
2021/01/04 04:22:42;;;;;;;35.17;14.23;;;2.40;99.90;;;;;;5069723;28;20056;-70
2021/01/04 04:25:13;;;;;;;36.33;16.23;;;2.40;99.90;;;;;;5070347;28;20542;-71
2021/01/04 04:27:40;;;;;;;37.53;15.47;;;2.30;99.90;;;;;;5070080;28;20055;-71
2021/01/04 04:30:09;;;;;;;41.57;16.10;;;2.40;99.90;;;;;;5063472;28;20055;-71
2021/01/04 04:32:37;;;;;;;39.53;16.83;;;2.40;99.90;;;;;;5062005;28;20049;-70
2021/01/04 04:35:05;;;;;;;42.03;17.20;;;2.40;99.90;;;;;;5067244;28;20056;-71
2021/01/04 04:37:32;;;;;;;37.67;15.87;;;2.40;99.90;;;;;;5067078;28;20057;-70
2021/01/04 04:39:59;;;;;;;42.97;17.00;;;2.30;99.90;;;;;;5065208;28;20049;-70
2021/01/04 04:42:38;;;;;;;43.90;17.07;;;2.40;99.90;;;;;;5068698;28;20070;-73
2021/01/04 04:45:07;;;;;;;39.50;16.33;;;2.40;99.90;;;;;;5068342;28;20040;-70
2021/01/04 04:48:05;;;;;;;31.60;14.00;;;2.40;99.90;;;;;;5068780;28;20052;-71
2021/01/04 04:51:00;;;;;;;35.87;14.87;;;2.40;99.90;;;;;;5066325;28;20052;-71
2021/01/04 04:53:54;;;;;;;35.00;14.60;;;2.40;99.90;;;;;;5062178;28;20048;-70
2021/01/04 04:56:46;;;;;;;41.23;16.40;;;2.30;99.90;;;;;;5068287;28;20055;-70
2021/01/04 04:59:25;;;;;;;32.83;15.33;;;2.30;99.90;;;;;;5063862;28;20044;-70
2021/01/04 05:01:58;;;;;;;38.67;15.10;;;2.40;99.90;;;;;;5069666;28;20044;-70
2021/01/04 05:04:42;;;;;;;34.60;14.43;;;2.40;99.90;;;;;;5069927;28;20051;-70
2021/01/04 05:07:17;;;;;;;35.90;14.27;;;2.40;99.90;;;;;;5060067;28;20049;-71
2021/01/04 05:09:57;;;;;;;32.90;14.37;;;2.40;99.90;;;;;;5062578;28;20519;-71
2021/01/04 05:12:45;;;;;;;36.00;15.80;;;2.40;99.90;;;;;;5056482;28;20082;-71
2021/01/04 05:15:25;;;;;;;31.57;14.63;;;2.30;99.90;;;;;;5068555;28;20060;-72
2021/01/04 05:18:25;;;;;;;30.37;14.63;;;2.40;99.90;;;;;;5067863;28;20044;-71
2021/01/04 05:21:28;;;;;;;36.33;14.97;;;2.40;99.90;;;;;;5069290;28;20421;-72
2021/01/04 05:24:25;;;;;;;35.87;14.83;;;2.40;99.90;;;;;;5063227;28;20562;-70
2021/01/04 05:27:06;;;;;;;33.47;14.87;;;2.40;99.90;;;;;;5060597;28;20048;-70
2021/01/04 05:30:14;;;;;;;34.47;14.60;;;2.40;99.90;;;;;;5069182;28;20063;-71
2021/01/04 05:33:14;;;;;;;36.55;14.40;;;2.40;99.90;;;;;;5066931;28;20082;-70
2021/01/04 05:35:45;;;;;;;36.63;15.33;;;2.40;99.90;;;;;;5069945;28;20053;-70
2021/01/04 05:38:21;;;;;;;41.47;16.93;;;2.40;99.90;;;;;;5069120;28;20491;-73
2021/01/04 05:41:04;;;;;;;35.20;15.30;;;2.40;99.90;;;;;;5069721;28;20052;-71
2021/01/04 05:43:48;;;;;;;36.73;15.90;;;2.30;99.90;;;;;;5068955;28;20062;-70
2021/01/04 05:46:22;;;;;;;41.23;16.80;;;2.30;99.90;;;;;;5070078;28;20048;-73
2021/01/04 05:49:07;;;;;;;33.53;15.63;;;2.40;99.90;;;;;;5068831;28;20412;-71
2021/01/04 05:51:37;;;;;;;34.20;15.20;;;2.30;99.90;;;;;;5069403;28;20059;-70
2021/01/04 05:54:05;;;;;;;32.90;15.27;;;2.40;99.90;;;;;;5068925;28;20067;-70
2021/01/04 05:56:32;;;;;;;31.90;13.23;;;2.40;99.90;;;;;;5068071;28;20071;-70
2021/01/04 05:59:11;;;;;;;31.27;13.47;;;2.30;99.90;;;;;;5049850;28;20053;-70
2021/01/04 06:01:38;;;;;;;27.87;13.80;;;2.30;99.90;;;;;;5048608;28;20049;-70
2021/01/04 06:04:08;;;;;;;29.10;13.43;;;2.30;99.90;;;;;;5049847;28;20497;-71
2021/01/04 06:06:47;;;;;;;28.97;13.07;;;2.30;99.90;;;;;;5048848;28;20052;-71
2021/01/04 06:09:16;;;;;;;32.07;13.47;;;2.30;99.90;;;;;;5049461;28;20497;-71
2021/01/04 06:11:53;;;;;;;25.83;13.07;;;2.30;99.90;;;;;;5048938;28;20045;-73
2021/01/04 06:14:20;;;;;;;29.70;12.18;;;2.30;99.90;;;;;;5050691;28;20394;-72
2021/01/04 06:16:47;;;;;;;28.23;13.67;;;2.30;99.90;;;;;;5069848;28;20063;-70
2021/01/04 06:19:17;;;;;;;29.10;12.77;;;2.20;99.90;;;;;;5068881;28;20102;-70
2021/01/04 06:21:50;;;;;;;28.27;13.37;;;2.30;99.90;;;;;;5068790;28;20060;-71
2021/01/04 06:24:30;;;;;;;27.63;13.63;;;2.30;99.90;;;;;;5070313;28;20500;-70
2021/01/04 06:27:00;;;;;;;33.13;14.53;;;2.30;99.90;;;;;;5072576;28;20457;-71
2021/01/04 06:29:33;;;;;;;32.80;14.57;;;2.30;99.90;;;;;;5073126;28;20055;-71
2021/01/04 06:32:01;;;;;;;28.40;13.57;;;2.20;99.90;;;;;;5071703;28;20075;-71
2021/01/04 06:34:31;;;;;;;29.27;14.47;;;2.30;99.90;;;;;;5073130;28;20055;-71
2021/01/04 06:37:01;;;;;;;33.33;14.30;;;2.30;99.90;;;;;;5073168;28;20535;-71
2021/01/04 06:39:31;;;;;;;35.53;15.73;;;2.30;99.90;;;;;;5072509;28;20052;-71
2021/01/04 06:42:13;;;;;;;30.03;13.13;;;2.30;99.90;;;;;;5072579;28;20401;-72
2021/01/04 06:44:44;;;;;;;31.93;14.03;;;2.30;99.90;;;;;;5071616;28;20052;-70
2021/01/04 06:47:41;;;;;;;31.27;13.63;;;2.30;99.90;;;;;;5073125;28;20052;-70
2021/01/04 06:50:12;;;;;;;26.17;13.73;;;2.30;99.90;;;;;;5071302;28;20064;-70
2021/01/04 06:53:07;;;;;;;27.93;13.37;;;2.40;99.90;;;;;;5072737;28;20275;-70
2021/01/04 06:56:06;;;;;;;29.47;13.77;;;2.40;99.90;;;;;;5073101;28;20406;-73
2021/01/04 06:58:51;;;;;;;23.73;12.20;;;2.30;99.90;;;;;;5045656;28;20091;-71
2021/01/04 07:01:49;;;;;;;27.97;12.73;;;2.40;99.90;;;;;;5072244;28;20052;-70
2021/01/04 07:04:34;;;;;;;26.90;12.93;;;2.30;99.90;;;;;;5071829;28;20052;-70
2021/01/04 07:07:25;;;;;;;31.13;13.63;;;2.30;99.90;;;;;;5072646;28;20052;-71
2021/01/04 07:10:23;;;;;;;28.37;12.60;;;2.30;99.90;;;;;;5071550;28;20056;-71
2021/01/04 07:12:56;;;;;;;;;;;2.20;99.90;;;;;;5070596;28;20083;-70
2021/01/04 07:15:30;;;;;;;28.47;12.87;;;2.30;99.90;;;;;;5071970;28;19924;-73
2021/01/04 07:18:32;;;;;;;29.83;13.60;;;2.30;99.90;;;;;;5071580;28;20397;-71
2021/01/04 07:21:20;;;;;;;30.20;14.17;;;2.30;99.90;;;;;;5072032;28;20102;-70
2021/01/04 07:23:55;;;;;;;30.00;14.60;;;2.40;99.90;;;;;;5070743;28;20068;-70
2021/01/04 07:26:31;;;;;;;26.80;12.47;;;2.30;99.90;;;;;;5072046;28;20087;-70
2021/01/04 07:29:14;;;;;;;31.13;13.47;;;2.30;99.90;;;;;;5071007;28;20105;-73
2021/01/04 07:31:46;;;;;;;35.03;15.17;;;2.40;99.90;;;;;;5071439;28;20147;-71
2021/01/04 07:34:20;;;;;;;29.97;14.10;;;2.30;99.90;;;;;;5072237;28;20044;-68
2021/01/04 07:36:52;;;;;;;27.93;12.57;;;2.30;99.90;;;;;;5070260;28;20094;-68
2021/01/04 07:39:32;;;;;;;32.33;14.00;;;2.30;99.90;;;;;;5051538;28;20060;-68
2021/01/04 07:42:20;;;;;;;36.43;14.30;;;2.30;99.90;;;;;;5050171;28;20098;-68
2021/01/04 07:45:19;;;;;;;28.50;13.57;;;2.30;99.90;;;;;;5051826;28;20045;-68
2021/01/04 07:48:26;;;;;;;25.87;13.03;;;2.30;99.90;;;;;;5051089;28;20485;-68
2021/01/04 07:51:14;;;;;;;35.67;14.70;;;2.30;99.90;;;;;;5051107;28;20045;-72
2021/01/04 07:54:16;;;;;;;29.63;12.77;;;2.30;99.90;;;;;;5060382;28;20048;-68
2021/01/04 07:57:13;;;;;;;32.07;13.77;;;2.20;99.90;;;;;;5047471;28;20082;-68
2021/01/04 08:00:04;;;;;;;32.87;12.53;;;2.20;99.90;;;;;;5070518;28;20064;-68
2021/01/04 08:03:06;;;;;;;30.63;13.37;;;2.20;99.90;;;;;;5070523;28;20051;-68
2021/01/04 08:06:05;;;;;;;30.50;13.57;;;2.30;99.90;;;;;;5070573;28;20053;-68
2021/01/04 08:08:47;;;;;;;31.27;14.63;;;2.30;99.90;;;;;;5069950;28;20052;-68
2021/01/04 08:11:51;;;;;;;34.50;14.73;;;2.40;99.90;;;;;;5069661;28;20080;-67
2021/01/04 08:14:55;;;;;;;37.53;14.23;;;2.50;99.90;;;;;;5070028;28;20171;-68
2021/01/04 08:17:32;;;;;;;35.17;15.80;;;2.40;99.90;;;;;;5071261;28;20389;-68
2021/01/04 08:20:05;;;;;;;34.88;16.38;;;2.40;99.90;;;;;;5070798;28;20048;-68
2021/01/04 08:22:49;;;;;;;34.57;16.07;;;2.40;99.90;;;;;;5070332;28;20131;-68
2021/01/04 08:25:30;;;;;;;31.07;14.17;;;2.40;99.90;;;;;;5070906;28;20052;-69
2021/01/04 08:28:22;;;;;;;33.03;15.20;;;2.40;99.90;;;;;;5069507;28;20189;-68
2021/01/04 08:31:00;;;;;;;32.33;15.13;;;2.40;99.90;;;;;;5070448;28;20122;-68
2021/01/04 08:33:42;;;;;;;33.47;15.03;;;2.50;99.90;;;;;;5069878;28;20053;-68
2021/01/04 08:36:18;;;;;;;40.17;16.97;;;2.50;99.90;;;;;;5069585;28;20044;-68
2021/01/04 08:38:45;;;;;;;32.23;14.20;;;2.50;99.90;;;;;;5069970;28;20052;-68
2021/01/04 08:41:29;;;;;;;29.67;14.30;;;2.60;99.90;;;;;;5069203;28;20070;-68
2021/01/04 08:43:56;;;;;;;29.20;13.67;;;2.60;99.90;;;;;;5071007;28;20044;-70
2021/01/04 08:46:32;;;;;;;28.70;13.70;;;2.60;99.90;;;;;;5069303;28;20049;-68
2021/01/04 08:49:14;;;;;;;33.58;13.75;;;2.60;99.90;;;;;;5069831;28;20063;-68
2021/01/04 08:51:48;;;;;;;33.93;14.03;;;2.60;99.90;;;;;;5068953;28;20045;-69
2021/01/04 08:54:27;;;;;;;29.83;14.70;;;2.60;99.90;;;;;;5063239;28;20052;-68
2021/01/04 08:57:05;;;;;;;30.50;14.13;;;2.70;99.90;;;;;;5073703;28;20121;-68
2021/01/04 08:59:33;;;;;;;30.43;13.93;;;2.70;99.90;;;;;;5080161;28;20060;-68
2021/01/04 09:02:01;;;;;;;36.30;15.67;;;2.70;99.90;;;;;;5081217;28;20071;-69
2021/01/04 09:04:35;;;;;;;28.03;12.90;;;2.70;99.90;;;;;;5071500;28;20048;-68
2021/01/04 09:07:14;;;;;;;31.77;14.57;;;2.80;99.90;;;;;;5056237;28;20048;-68
2021/01/04 09:09:49;;;;;;;31.63;13.87;;;2.80;99.90;;;;;;5080677;28;20067;-68
2021/01/04 09:12:25;;;;;;;29.57;13.87;;;2.80;99.90;;;;;;5087595;28;20052;-70
2021/01/04 09:14:55;;;;;;;36.90;15.37;;;2.80;99.90;;;;;;5076083;28;20053;-71
2021/01/04 09:17:32;;;;;;;32.43;14.00;;;2.80;99.90;;;;;;5070341;28;20090;-70
2021/01/04 09:20:12;;;;;;;34.38;13.95;;;2.70;99.90;;;;;;5069686;28;20118;-70
2021/01/04 09:22:39;;;;;;;29.27;13.37;;;2.70;99.90;;;;;;5058676;28;20055;-70
2021/01/04 09:25:20;;;;;;;33.37;15.07;;;2.80;99.90;;;;;;5049415;28;20056;-70
2021/01/04 09:27:49;;;;;;;32.63;13.20;;;2.80;99.90;;;;;;5049569;28;20048;-78
2021/01/04 09:30:22;;;;;;;26.67;13.17;;;2.90;99.90;;;;;;5047773;28;20424;-71
2021/01/04 09:32:50;;;;;;;34.47;13.60;;;2.90;99.90;;;;;;5049883;28;20110;-71
2021/01/04 09:35:25;;;;;;;31.57;14.07;;;2.90;99.90;;;;;;5062354;28;20055;-71
2021/01/04 09:38:00;;;;;;;28.20;13.93;;;3.00;99.90;;;;;;5078145;28;20079;-69
2021/01/04 09:40:29;;;;;;;34.83;13.10;;;3.00;99.90;;;;;;5085117;28;20511;-69
2021/01/04 09:43:04;;;;;;;31.70;14.07;;;3.10;99.90;;;;;;5071194;28;20078;-69
2021/01/04 09:45:31;;;;;;;29.43;13.97;;;3.10;99.90;;;;;;5080868;28;20049;-70
2021/01/04 09:48:02;;;;;;;30.90;13.83;;;3.10;99.90;;;;;;5080197;28;20044;-70
2021/01/04 09:50:33;;;;;;;26.40;12.30;;;3.20;99.90;;;;;;5072044;28;20489;-69
2021/01/04 09:53:04;;;;;;;32.07;13.97;;;3.20;99.90;;;;;;5056609;28;20044;-67
2021/01/04 09:55:34;;;;;;;29.97;13.57;;;3.20;99.90;;;;;;5080077;28;20049;-67
2021/01/04 09:58:03;;;;;;;35.33;15.07;;;3.00;99.90;;;;;;5074711;28;20420;-67
2021/01/04 10:00:33;;;;;;;31.30;13.73;;;3.10;99.90;;;;;;5088184;28;20145;-67
2021/01/04 10:03:06;;;;;;;29.17;14.20;;;3.10;99.90;;;;;;5061187;28;20084;-67
2021/01/04 10:05:36;;;;;;;32.17;14.00;;;3.20;99.90;;;;;;5085810;28;20050;-67
2021/01/04 10:08:10;;;;;;;31.77;13.90;;;3.20;99.90;;;;;;5072621;28;20064;-67
2021/01/04 10:10:41;;;;;;;28.57;13.23;;;3.20;99.90;;;;;;5072766;28;20054;-71
2021/01/04 10:13:11;;;;;;;30.70;13.73;;;3.20;99.90;;;;;;5071791;28;20105;-73
2021/01/04 10:15:39;;;;;;;33.10;14.77;;;3.20;99.90;;;;;;5053029;28;20088;-70
2021/01/04 10:18:20;;;;;;;34.40;14.70;;;3.30;99.90;;;;;;5052879;28;20439;-73
2021/01/04 10:20:53;;;;;;;31.17;13.70;;;3.30;99.90;;;;;;5051596;28;20485;-71
2021/01/04 10:23:27;;;;;;;33.87;14.00;;;3.30;99.90;;;;;;5066404;28;20044;-71
2021/01/04 10:25:59;;;;;;;29.70;14.27;;;3.30;99.90;;;;;;5091877;28;20057;-71
2021/01/04 10:28:30;;;;;;;30.13;13.43;;;3.40;99.90;;;;;;5093047;28;20092;-70
2021/01/04 10:31:07;;;;;;;31.50;13.40;;;3.40;99.90;;;;;;5091748;28;20052;-74
2021/01/04 10:33:35;;;;;;;;;;;3.40;99.90;;;;;;5093215;28;20052;-74
2021/01/04 10:36:11;;;;;;;32.23;14.00;;;3.50;99.90;;;;;;5093251;28;19920;-75
2021/01/04 10:38:42;;;;;;;31.60;12.52;;;3.40;99.90;;;;;;5094413;28;20044;-74
2021/01/04 10:41:12;;;;;;;29.80;13.60;;;3.40;99.90;;;;;;5072023;28;20135;-73
2021/01/04 10:43:39;;;;;;;26.10;12.90;;;3.40;99.90;;;;;;5076628;28;20475;-73
2021/01/04 10:46:26;;;;;;;27.77;14.03;;;3.40;99.90;;;;;;5085201;28;20082;-71
2021/01/04 10:48:59;;;;;;;29.38;12.48;;;3.40;99.90;;;;;;5093421;28;20557;-75
2021/01/04 10:51:28;;;;;;;27.17;12.33;;;3.50;99.90;;;;;;5083849;28;20056;-70
2021/01/04 10:53:55;;;;;;;30.30;15.07;;;3.50;99.90;;;;;;5083591;28;20523;-70
2021/01/04 10:56:37;;;;;;;33.57;14.40;;;3.50;99.90;;;;;;5093802;28;20052;-70
2021/01/04 11:05:47;;;;;;;33.00;14.53;;;3.70;99.90;;;;;;5089260;28;20078;-69
2021/01/04 11:08:28;;;;;;;33.10;14.90;;;3.60;99.90;;;;;;5104938;28;20051;-66
2021/01/04 11:10:57;;;;;;;33.40;14.67;;;3.70;99.90;;;;;;5076926;28;20083;-69
2021/01/04 11:13:34;;;;;;;28.90;13.27;;;3.70;99.90;;;;;;5095188;28;20044;-70
2021/01/04 11:16:12;;;;;;;30.90;13.87;;;3.80;99.90;;;;;;5109566;28;20052;-69
2021/01/04 11:18:51;;;;;;;29.90;12.90;;;3.70;99.90;;;;;;5091855;28;20044;-69
2021/01/04 11:21:19;;;;;;;34.93;14.50;;;3.80;99.90;;;;;;5084225;28;20053;-68
2021/01/04 11:23:46;;;;;;;29.93;14.17;;;3.80;99.90;;;;;;5084080;28;20059;-71
2021/01/04 11:26:13;;;;;;;30.07;13.03;;;3.80;99.90;;;;;;5079305;28;20049;-70
2021/01/04 11:28:41;;;;;;;29.00;13.37;;;3.80;99.90;;;;;;5081095;28;20067;-70
2021/01/04 11:31:07;;;;;;;32.10;12.73;;;3.70;99.90;;;;;;5082876;28;20060;-67
2021/01/04 11:33:34;;;;;;;26.53;13.73;;;3.80;99.90;;;;;;5081757;28;20546;-67
2021/01/04 11:36:01;;;;;;;28.43;12.80;;;3.90;99.90;;;;;;5089042;28;20419;-68
2021/01/04 11:38:27;;;;;;;26.80;12.63;;;3.90;99.90;;;;;;5074964;28;20174;-68
2021/01/04 11:40:55;;;;;;;30.70;13.43;;;4.00;99.90;;;;;;5088719;28;20096;-67
2021/01/04 11:43:22;;;;;;;28.97;12.23;;;4.00;99.90;;;;;;5091314;28;20044;-68
2021/01/04 11:45:50;;;;;;;30.63;13.03;;;4.10;99.90;;;;;;5091462;28;20060;-67
2021/01/04 11:48:17;;;;;;;32.27;14.53;;;4.10;99.90;;;;;;5091323;28;20406;-67
2021/01/04 11:50:44;;;;;;;32.53;13.93;;;4.10;99.90;;;;;;5089019;28;20784;-67
2021/01/04 11:53:11;;;;;;;26.63;12.57;;;4.00;99.90;;;;;;5091974;28;20052;-67
2021/01/04 11:55:37;;;;;;;27.37;13.30;;;4.00;99.90;;;;;;5090645;28;20423;-67
2021/01/04 11:58:04;;;;;;;29.60;13.00;;;4.00;99.90;;;;;;5073337;28;20053;-68
2021/01/04 12:00:31;;;;;;;30.60;13.60;;;4.00;99.90;;;;;;5068472;28;20056;-67
2021/01/04 12:02:59;;;;;;;27.70;13.60;;;3.90;99.90;;;;;;5071197;28;20048;-67
2021/01/04 12:05:25;;;;;;;29.27;13.00;;;4.00;99.90;;;;;;5071755;28;20143;-66
2021/01/04 12:07:53;;;;;;;27.97;12.97;;;4.00;99.90;;;;;;5069932;28;20048;-68
2021/01/04 12:10:22;;;;;;;26.90;12.67;;;4.00;99.90;;;;;;5068968;28;20057;-67
2021/01/04 12:12:48;;;;;;;25.77;12.27;;;3.90;99.90;;;;;;5070420;28;20052;-67
2021/01/04 12:15:16;;;;;;;27.30;12.73;;;3.90;99.90;;;;;;5071049;28;20079;-68
2021/01/04 12:17:43;;;;;;;25.80;12.87;;;3.80;99.90;;;;;;5074482;28;20048;-67
2021/01/04 12:20:12;;;;;;;28.37;13.47;;;3.90;99.90;;;;;;5069908;28;20055;-67
2021/01/04 12:22:38;;;;;;;28.13;13.27;;;3.80;99.90;;;;;;5069958;28;20048;-69
2021/01/04 12:25:07;;;;;;;27.67;12.77;;;3.80;99.90;;;;;;5070338;28;20589;-73
2021/01/04 12:27:33;;;;;;;29.77;13.97;;;3.80;99.90;;;;;;5067624;28;20110;-71
2021/01/04 12:30:01;;;;;;;29.43;14.50;;;3.80;99.90;;;;;;5050806;28;20053;-70
2021/01/04 12:32:30;;;;;;;26.73;12.73;;;3.80;99.90;;;;;;5057182;28;20064;-71
2021/01/04 12:34:57;;;;;;;29.10;11.83;;;3.90;99.90;;;;;;5057831;28;20643;-72
2021/01/04 12:37:25;;;;;;;29.30;12.17;;;4.00;99.90;;;;;;5058531;28;20048;-71
2021/01/04 12:39:52;;;;;;;29.53;13.03;;;4.00;99.90;;;;;;5056563;28;20139;-73
2021/01/04 12:42:18;;;;;;;30.60;14.03;;;3.90;99.90;;;;;;5057668;28;20147;-70
2021/01/04 12:44:48;;;;;;;31.77;13.13;;;4.00;99.90;;;;;;5058391;28;20548;-71
2021/01/04 12:47:15;;;;;;;30.23;12.63;;;4.00;99.90;;;;;;5061683;28;20048;-70
2021/01/04 12:49:44;;;;;;;29.97;12.60;;;3.90;99.90;;;;;;5061364;28;20049;-72
2021/01/04 12:52:11;;;;;;;24.57;12.17;;;3.90;99.90;;;;;;5061525;28;20060;-71
2021/01/04 12:54:39;;;;;;;31.67;13.67;;;4.10;99.90;;;;;;5067242;28;20056;-71
2021/01/04 12:57:10;;;;;;;28.23;13.63;;;4.10;99.90;;;;;;5063682;28;20622;-70
2021/01/04 12:59:40;;;;;;;29.37;12.97;;;4.00;99.90;;;;;;5069610;28;20060;-70
2021/01/04 13:02:08;;;;;;;31.93;13.50;;;4.10;99.90;;;;;;5059961;28;20056;-70
2021/01/04 13:04:39;;;;;;;28.23;13.83;;;4.10;99.90;;;;;;5059798;28;20496;-70
2021/01/04 13:07:06;;;;;;;29.40;13.30;;;4.10;99.90;;;;;;5058877;28;20076;-70
2021/01/04 13:09:34;;;;;;;27.40;12.37;;;4.10;99.90;;;;;;5057470;28;20689;-71
2021/01/04 13:12:02;;;;;;;25.77;11.83;;;4.00;99.90;;;;;;5055736;28;20083;-70
2021/01/04 13:14:29;;;;;;;24.97;12.90;;;4.10;99.90;;;;;;5060347;28;20048;-70
2021/01/04 13:16:56;;;;;;;23.73;11.83;;;4.10;99.90;;;;;;5058629;28;20049;-70
2021/01/04 13:19:27;;;;;;;23.47;12.20;;;4.00;99.90;;;;;;5059396;28;20077;-69
2021/01/04 13:21:55;;;;;;;24.13;11.87;;;4.10;99.90;;;;;;5059120;28;20361;-70
2021/01/04 13:24:26;;;;;;;28.00;12.13;;;4.10;99.90;;;;;;5058646;28;20063;-71
2021/01/04 13:26:58;;;;;;;23.63;11.07;;;4.00;99.90;;;;;;5068859;28;20052;-71
2021/01/04 13:29:29;;;;;;;23.73;11.67;;;4.10;99.90;;;;;;5068702;28;20412;-69
2021/01/04 13:32:00;;;;;;;24.23;11.43;;;4.10;99.90;;;;;;5056279;28;20048;-69